createdAt,value
2018-02-08T00:00:48.970Z,-2.08
2018-02-08T00:03:23.612Z,-2.11
2018-02-08T00:05:58.338Z,-2.13
2018-02-08T00:08:33.597Z,-2.16
2018-02-08T00:11:08.034Z,-2.18
2018-02-08T00:13:42.530Z,-2.21
2018-02-08T00:16:17.394Z,-2.25
2018-02-08T00:18:52.394Z,-2.26
2018-02-08T00:21:27.797Z,-2.29
2018-02-08T00:24:02.875Z,-2.34
2018-02-08T00:26:37.997Z,-2.35
2018-02-08T00:29:13.370Z,-2.40
2018-02-08T00:31:48.873Z,-2.37
2018-02-08T00:34:23.545Z,-2.43
2018-02-08T00:36:59.006Z,-2.42
2018-02-08T00:39:34.212Z,-2.47
2018-02-08T00:42:09.403Z,-2.52
2018-02-08T00:44:44.079Z,-2.56
2018-02-08T00:47:19.629Z,-2.59
2018-02-08T00:49:54.421Z,-2.63
2018-02-08T00:52:29.162Z,-2.65
2018-02-08T00:55:03.874Z,-2.66
2018-02-08T00:57:38.560Z,-2.69
2018-02-08T01:00:13.803Z,-2.71
2018-02-08T01:02:48.894Z,-2.74
2018-02-08T01:05:24.302Z,-2.75
2018-02-08T01:07:59.182Z,-2.79
2018-02-08T01:10:34.237Z,-2.84
2018-02-08T01:13:09.396Z,-2.87
2018-02-08T01:15:44.720Z,-2.92
2018-02-08T01:18:19.534Z,-2.96
2018-02-08T01:20:54.292Z,-2.98
2018-02-08T01:23:29.588Z,-3.05
2018-02-08T01:26:04.858Z,-3.05
2018-02-08T01:28:40.133Z,-3.09
2018-02-08T01:31:15.529Z,-3.14
2018-02-08T01:33:50.857Z,-3.15
2018-02-08T01:36:26.246Z,-3.15
2018-02-08T01:39:01.265Z,-3.16
2018-02-08T01:41:35.974Z,-3.17
2018-02-08T01:44:10.926Z,-3.18
2018-02-08T01:46:46.158Z,-3.20
2018-02-08T01:49:32.442Z,-3.21
2018-02-08T01:52:07.113Z,-3.20
2018-02-08T01:54:42.534Z,-3.23
2018-02-08T01:57:17.705Z,-3.26
2018-02-08T01:59:53.222Z,-3.27
2018-02-08T02:02:28.050Z,-3.23
2018-02-08T02:05:03.702Z,-3.24
2018-02-08T02:07:39.269Z,-3.29
2018-02-08T02:10:14.801Z,-3.33
2018-02-08T02:12:50.063Z,-3.34
2018-02-08T02:15:25.376Z,-3.35
2018-02-08T02:18:00.621Z,-3.36
2018-02-08T02:20:35.482Z,-3.37
2018-02-08T02:23:10.286Z,-3.43
2018-02-08T02:25:45.674Z,-3.50
2018-02-08T02:28:21.231Z,-3.53
2018-02-08T02:30:56.666Z,-3.56
2018-02-08T02:33:32.366Z,-3.64
2018-02-08T02:36:07.755Z,-3.69
2018-02-08T02:38:43.399Z,-3.70
2018-02-08T02:41:18.590Z,-3.74
2018-02-08T02:43:53.555Z,-3.75
2018-02-08T02:46:29.097Z,-3.74
2018-02-08T02:49:04.561Z,-3.77
2018-02-08T02:51:40.886Z,-3.80
2018-02-08T02:54:15.751Z,-3.84
2018-02-08T02:56:50.885Z,-3.89
2018-02-08T02:59:25.913Z,-3.88
2018-02-08T03:02:01.229Z,-3.86
2018-02-08T03:04:37.045Z,-3.84
2018-02-08T03:07:12.606Z,-3.86
2018-02-08T03:09:47.801Z,-3.85
2018-02-08T03:12:22.612Z,-3.86
2018-02-08T03:14:57.786Z,-3.88
2018-02-08T03:17:33.382Z,-3.89
2018-02-08T03:20:08.670Z,-3.94
2018-02-08T03:22:43.754Z,-3.99
2018-02-08T03:25:19.344Z,-4.04
2018-02-08T03:27:54.925Z,-4.04
2018-02-08T03:30:29.995Z,-4.05
2018-02-08T03:33:05.837Z,-4.02
2018-02-08T03:35:40.712Z,-3.99
2018-02-08T03:38:15.746Z,-3.98
2018-02-08T03:40:51.022Z,-4.00
2018-02-08T03:43:26.655Z,-4.01
2018-02-08T03:46:01.901Z,-4.03
2018-02-08T03:48:36.594Z,-4.03
2018-02-08T03:51:12.154Z,-4.04
2018-02-08T03:53:47.927Z,-4.05
2018-02-08T03:56:23.272Z,-4.11
2018-02-08T03:58:58.897Z,-4.06
2018-02-08T04:01:34.005Z,-4.08
2018-02-08T04:04:09.275Z,-4.09
2018-02-08T04:06:44.650Z,-4.10
2018-02-08T04:09:19.585Z,-4.11
2018-02-08T04:11:55.059Z,-4.14
2018-02-08T04:14:30.133Z,-4.15
2018-02-08T04:17:05.106Z,-4.16
2018-02-08T04:19:40.458Z,-4.17
2018-02-08T04:22:15.637Z,-4.16
2018-02-08T04:24:51.001Z,-4.18
2018-02-08T04:27:26.542Z,-4.19
2018-02-08T04:30:02.138Z,-4.19
2018-02-08T04:32:37.158Z,-4.20
2018-02-08T04:35:11.962Z,-4.21
2018-02-08T04:37:47.296Z,-4.19
2018-02-08T04:53:51.907Z,-4.26
2018-02-08T04:56:27.042Z,-4.21
2018-02-08T04:59:01.947Z,-4.21
2018-02-08T05:01:36.465Z,-4.21
2018-02-08T05:04:11.462Z,-4.26
2018-02-08T05:06:46.417Z,-4.33
2018-02-08T05:09:21.434Z,-4.41
2018-02-08T05:11:56.369Z,-4.47
2018-02-08T05:14:31.310Z,-4.51
2018-02-08T05:17:06.322Z,-4.53
2018-02-08T05:19:41.918Z,-4.55
2018-02-08T05:22:16.918Z,-4.55
2018-02-08T05:24:51.837Z,-4.58
2018-02-08T05:27:26.913Z,-4.59
2018-02-08T05:30:01.845Z,-4.62
2018-02-08T05:32:36.239Z,-4.65
2018-02-08T05:35:11.163Z,-4.67
2018-02-08T05:37:46.054Z,-4.70
2018-02-08T05:40:20.857Z,-4.68
2018-02-08T05:42:55.654Z,-4.67
2018-02-08T05:45:30.594Z,-4.69
2018-02-08T05:48:05.505Z,-4.72
2018-02-08T05:50:40.375Z,-4.76
2018-02-08T05:53:15.306Z,-4.79
2018-02-08T05:55:50.173Z,-4.79
2018-02-08T05:58:25.042Z,-4.79
2018-02-08T06:00:59.948Z,-4.76
2018-02-08T06:03:34.739Z,-4.73
2018-02-08T06:06:09.138Z,-4.72
2018-02-08T06:08:44.515Z,-4.69
2018-02-08T06:11:19.425Z,-4.74
2018-02-08T06:13:54.301Z,-4.78
2018-02-08T06:16:29.277Z,-4.83
2018-02-08T06:19:04.442Z,-4.86
2018-02-08T06:21:39.375Z,-4.88
2018-02-08T06:24:14.386Z,-4.89
2018-02-08T06:26:49.127Z,-4.93
2018-02-08T06:29:24.254Z,-4.96
2018-02-08T06:31:59.070Z,-4.94
2018-02-08T06:34:34.029Z,-4.92
2018-02-08T06:37:09.141Z,-4.90
2018-02-08T06:39:44.412Z,-4.90
2018-02-08T06:42:19.385Z,-4.95
2018-02-08T06:44:54.475Z,-4.98
2018-02-08T06:47:29.500Z,-4.94
2018-02-08T06:50:04.371Z,-4.97
2018-02-08T06:52:40.246Z,-5.02
2018-02-08T06:55:15.114Z,-5.07
2018-02-08T06:57:50.158Z,-5.06
2018-02-08T07:00:25.099Z,-5.04
2018-02-08T07:03:00.042Z,-5.04
2018-02-08T07:05:34.940Z,-5.07
2018-02-08T07:08:10.791Z,-5.12
2018-02-08T07:10:45.702Z,-5.18
2018-02-08T07:13:20.921Z,-5.17
2018-02-08T07:15:55.814Z,-5.11
2018-02-08T07:18:31.742Z,-5.08
2018-02-08T07:21:06.649Z,-5.02
2018-02-08T07:23:41.431Z,-4.96
2018-02-08T07:26:16.266Z,-4.92
2018-02-08T07:28:50.986Z,-4.89
2018-02-08T07:31:26.847Z,-4.86
2018-02-08T07:34:01.923Z,-4.83
2018-02-08T07:36:36.926Z,-4.80
2018-02-08T07:39:12.006Z,-4.73
2018-02-08T07:41:47.091Z,-4.65
2018-02-08T07:44:21.896Z,-4.58
2018-02-08T07:46:56.875Z,-4.53
2018-02-08T07:49:31.838Z,-4.48
2018-02-08T07:52:06.754Z,-4.38
2018-02-08T07:54:41.549Z,-4.20
2018-02-08T07:57:16.634Z,-4.01
2018-02-08T07:59:51.363Z,-3.85
2018-02-08T08:02:27.167Z,-3.68
2018-02-08T08:05:02.146Z,-3.49
2018-02-08T08:07:37.046Z,-3.36
2018-02-08T08:10:11.827Z,-3.19
2018-02-08T08:12:47.052Z,-3.00
2018-02-08T08:15:21.780Z,-2.82
2018-02-08T08:17:56.918Z,-2.62
2018-02-08T08:20:31.651Z,-2.43
2018-02-08T08:23:06.482Z,-2.23
2018-02-08T08:25:41.455Z,-2.06
2018-02-08T08:28:16.331Z,-1.93
2018-02-08T08:30:51.301Z,-1.72
2018-02-08T08:33:25.979Z,-1.53
2018-02-08T08:36:01.042Z,-1.32
2018-02-08T08:38:35.895Z,-1.12
2018-02-08T08:41:10.713Z,-0.99
2018-02-08T08:43:45.539Z,-0.89
2018-02-08T08:46:20.667Z,-0.78
2018-02-08T08:48:55.607Z,-0.66
2018-02-08T08:51:30.762Z,-0.51
2018-02-08T08:54:05.370Z,-0.26
2018-02-08T08:56:40.486Z,0.01
2018-02-08T08:59:15.238Z,0.19
2018-02-08T09:01:50.245Z,0.28
2018-02-08T09:04:24.928Z,0.39
2018-02-08T09:06:59.623Z,0.51
2018-02-08T09:09:34.374Z,0.72
2018-02-08T09:12:09.369Z,0.98
2018-02-08T09:14:44.393Z,1.24
2018-02-08T09:17:19.270Z,1.45
2018-02-08T09:19:54.081Z,1.56
2018-02-08T09:22:28.881Z,1.75
2018-02-08T09:25:03.557Z,1.89
2018-02-08T09:27:38.257Z,1.99
2018-02-08T09:30:12.942Z,2.15
2018-02-08T09:32:47.713Z,2.33
2018-02-08T09:35:22.466Z,2.45
2018-02-08T09:37:57.260Z,2.49
2018-02-08T09:40:31.997Z,2.64
2018-02-08T09:43:06.855Z,2.79
2018-02-08T09:45:41.942Z,3.06
2018-02-08T09:48:16.377Z,3.19
2018-02-08T09:50:51.170Z,3.35
2018-02-08T09:53:26.153Z,3.54
2018-02-08T09:56:01.207Z,3.68
2018-02-08T09:58:35.961Z,3.86
2018-02-08T10:01:10.959Z,4.06
2018-02-08T10:03:45.829Z,4.21
2018-02-08T10:06:21.398Z,4.36
2018-02-08T10:08:55.833Z,4.47
2018-02-08T10:11:30.715Z,4.59
2018-02-08T10:14:05.818Z,4.91
2018-02-08T10:16:40.522Z,5.11
2018-02-08T10:19:15.603Z,5.23
2018-02-08T10:21:50.632Z,5.32
2018-02-08T10:24:25.677Z,5.44
2018-02-08T10:27:00.549Z,5.67
2018-02-08T10:29:35.642Z,5.91
2018-02-08T10:32:10.322Z,5.96
2018-02-08T10:34:45.190Z,6.10
2018-02-08T10:37:19.984Z,6.21
2018-02-08T10:39:54.880Z,6.45
2018-02-08T10:42:29.812Z,6.71
2018-02-08T10:45:04.432Z,6.66
2018-02-08T10:47:39.622Z,6.52
2018-02-08T10:50:14.515Z,6.26
2018-02-08T10:52:49.378Z,5.96
2018-02-08T10:55:24.361Z,6.00
2018-02-08T10:57:59.335Z,6.14
2018-02-08T11:00:34.318Z,6.36
2018-02-08T11:03:09.199Z,6.67
2018-02-08T11:05:44.098Z,6.93
2018-02-08T11:08:19.251Z,7.15
2018-02-08T11:10:54.164Z,7.42
2018-02-08T11:13:29.372Z,7.54
2018-02-08T11:16:04.345Z,7.59
2018-02-08T11:18:38.814Z,7.69
2018-02-08T11:21:13.890Z,7.71
2018-02-08T11:23:48.806Z,7.72
2018-02-08T11:26:23.665Z,7.70
2018-02-08T11:28:58.466Z,7.75
2018-02-08T11:31:33.434Z,7.98
2018-02-08T11:34:08.351Z,8.01
2018-02-08T11:36:43.397Z,8.01
2018-02-08T11:39:18.161Z,8.04
2018-02-08T11:41:53.095Z,8.00
2018-02-08T11:44:27.986Z,7.95
2018-02-08T11:47:03.057Z,7.73
2018-02-08T11:49:38.077Z,7.72
2018-02-08T11:52:13.149Z,7.60
2018-02-08T11:54:48.101Z,7.69
2018-02-08T11:57:23.005Z,7.86
2018-02-08T11:59:57.932Z,8.03
2018-02-08T12:02:32.840Z,8.02
2018-02-08T12:05:07.890Z,8.19
2018-02-08T12:07:42.377Z,8.45
2018-02-08T12:10:17.518Z,8.74
2018-02-08T12:12:52.487Z,9.00
2018-02-08T12:15:27.524Z,9.24
2018-02-08T12:18:02.693Z,9.20
2018-02-08T12:20:37.605Z,9.12
2018-02-08T12:23:12.798Z,9.00
2018-02-08T12:25:47.367Z,9.03
2018-02-08T12:28:22.042Z,9.01
2018-02-08T12:30:56.930Z,9.05
2018-02-08T12:33:31.463Z,8.98
2018-02-08T12:36:06.445Z,8.86
2018-02-08T12:38:41.354Z,8.78
2018-02-08T12:41:16.234Z,8.63
2018-02-08T12:43:51.029Z,8.59
2018-02-08T12:46:25.966Z,8.42
2018-02-08T12:49:00.837Z,8.21
2018-02-08T12:51:35.855Z,8.10
2018-02-08T12:54:10.822Z,7.95
2018-02-08T12:56:45.811Z,7.93
2018-02-08T12:59:20.848Z,7.87
2018-02-08T13:01:55.786Z,7.48
2018-02-08T13:04:30.486Z,7.14
2018-02-08T13:07:05.437Z,7.07
2018-02-08T13:09:40.419Z,7.08
2018-02-08T13:12:15.430Z,7.09
2018-02-08T13:14:50.398Z,7.24
2018-02-08T13:17:25.377Z,7.48
2018-02-08T13:20:00.357Z,7.71
2018-02-08T13:22:35.406Z,7.83
2018-02-08T13:25:10.234Z,7.76
2018-02-08T13:27:45.418Z,7.83
2018-02-08T13:30:20.401Z,7.90
2018-02-08T13:32:55.528Z,7.52
2018-02-08T13:35:30.754Z,7.72
2018-02-08T13:38:05.645Z,7.90
2018-02-08T13:40:45.003Z,8.08
2018-02-08T13:43:19.537Z,8.22
2018-02-08T13:45:54.706Z,8.40
2018-02-08T13:48:31.428Z,8.55
2018-02-08T14:04:39.013Z,8.31
2018-02-08T14:07:13.864Z,7.92
2018-02-08T14:09:48.634Z,7.77
2018-02-08T14:12:23.610Z,7.57
2018-02-08T14:14:58.576Z,7.53
2018-02-08T14:17:33.747Z,7.73
2018-02-08T14:20:08.842Z,8.01
2018-02-08T14:22:43.798Z,8.07
2018-02-08T14:25:18.561Z,8.03
2018-02-08T14:27:53.631Z,7.86
2018-02-08T14:30:28.561Z,7.78
2018-02-08T14:33:03.634Z,7.41
2018-02-08T14:35:38.765Z,7.14
2018-02-08T14:38:13.462Z,6.95
2018-02-08T14:40:48.223Z,6.69
2018-02-08T14:43:22.970Z,6.63
2018-02-08T14:45:57.878Z,6.60
2018-02-08T14:48:32.810Z,6.41
2018-02-08T14:51:07.778Z,6.26
2018-02-08T14:53:42.790Z,6.10
2018-02-08T14:56:17.730Z,6.01
2018-02-08T14:58:52.799Z,5.94
2018-02-08T15:01:27.617Z,5.75
2018-02-08T15:04:02.645Z,5.63
2018-02-08T15:06:37.734Z,5.70
2018-02-08T15:09:12.664Z,5.66
2018-02-08T15:11:47.624Z,5.67
2018-02-08T15:14:22.394Z,5.54
2018-02-08T15:16:57.282Z,5.18
2018-02-08T15:19:32.055Z,5.12
2018-02-08T15:22:07.194Z,5.18
2018-02-08T15:24:42.197Z,5.06
2018-02-08T15:27:17.195Z,4.86
2018-02-08T15:29:51.973Z,4.75
2018-02-08T15:32:26.920Z,4.71
2018-02-08T15:35:01.664Z,4.62
2018-02-08T15:37:36.665Z,4.62
2018-02-08T15:40:11.416Z,4.65
2018-02-08T15:42:46.334Z,4.72
2018-02-08T15:45:21.353Z,4.74
2018-02-08T15:47:56.202Z,4.79
2018-02-08T15:50:31.018Z,4.83
2018-02-08T15:53:05.870Z,4.82
2018-02-08T15:55:40.214Z,4.76
2018-02-08T15:58:15.108Z,4.73
2018-02-08T16:00:49.703Z,4.71
2018-02-08T16:03:24.542Z,4.60
2018-02-08T16:05:59.630Z,4.54
2018-02-08T16:08:34.437Z,4.58
2018-02-08T16:11:09.162Z,4.53
2018-02-08T16:13:43.932Z,4.50
2018-02-08T16:16:18.568Z,4.44
2018-02-08T16:18:53.455Z,4.36
2018-02-08T16:21:28.162Z,4.27
2018-02-08T16:24:02.963Z,4.17
2018-02-08T16:26:37.925Z,4.11
2018-02-08T16:29:12.694Z,4.03
2018-02-08T16:31:47.638Z,4.00
2018-02-08T16:34:22.526Z,3.95
2018-02-08T16:36:57.466Z,3.88
2018-02-08T16:39:32.375Z,3.76
2018-02-08T16:42:07.135Z,3.69
2018-02-08T16:44:42.068Z,3.63
2018-02-08T16:47:16.957Z,3.53
2018-02-08T16:49:51.726Z,3.51
2018-02-08T16:52:26.102Z,3.43
2018-02-08T16:55:01.108Z,3.34
2018-02-08T16:57:36.076Z,3.22
2018-02-08T17:00:10.788Z,3.13
2018-02-08T17:02:45.566Z,3.03
2018-02-08T17:05:20.197Z,2.86
2018-02-08T17:07:54.989Z,2.71
2018-02-08T17:10:29.870Z,2.71
2018-02-08T17:13:04.246Z,2.68
2018-02-08T17:15:39.227Z,2.61
2018-02-08T17:18:13.967Z,2.51
2018-02-08T17:20:48.713Z,2.52
2018-02-08T17:23:23.565Z,2.45
2018-02-08T17:25:58.382Z,2.38
2018-02-08T17:28:33.041Z,2.40
2018-02-08T17:31:07.828Z,2.43
2018-02-08T17:33:42.610Z,2.45
2018-02-08T17:36:17.385Z,2.44
2018-02-08T17:38:52.065Z,2.37
2018-02-08T17:41:27.137Z,2.42
2018-02-08T17:44:01.971Z,2.47
2018-02-08T17:46:36.764Z,2.37
2018-02-08T17:49:11.690Z,2.37
2018-02-08T17:51:46.302Z,2.37
2018-02-08T17:54:21.104Z,2.40
2018-02-08T17:56:56.124Z,2.42
2018-02-08T17:59:30.830Z,2.35
2018-02-08T18:02:05.653Z,2.27
2018-02-08T18:04:40.377Z,2.17
2018-02-08T18:07:15.269Z,2.05
2018-02-08T18:09:50.178Z,2.01
2018-02-08T18:12:24.982Z,2.03
2018-02-08T18:14:59.768Z,1.93
2018-02-08T18:17:34.764Z,1.94
2018-02-08T18:20:09.499Z,1.91
2018-02-08T18:22:44.395Z,1.90
2018-02-08T18:25:19.000Z,1.82
2018-02-08T18:27:53.782Z,1.80
2018-02-08T18:30:28.598Z,1.77
2018-02-08T18:33:03.320Z,1.77
2018-02-08T18:35:38.228Z,1.74
2018-02-08T18:38:13.115Z,1.68
2018-02-08T18:40:48.083Z,1.60
2018-02-08T18:43:22.865Z,1.54
2018-02-08T18:45:57.903Z,1.45
2018-02-08T18:48:32.586Z,1.40
2018-02-08T18:51:07.371Z,1.32
2018-02-08T18:53:42.261Z,1.30
2018-02-08T18:56:17.146Z,1.36
2018-02-08T18:58:52.435Z,1.39
2018-02-08T19:01:27.278Z,1.40
2018-02-08T19:04:02.015Z,1.40
2018-02-08T19:06:36.830Z,1.34
2018-02-08T19:09:11.489Z,1.33
2018-02-08T19:11:46.193Z,1.29
2018-02-08T19:14:21.042Z,1.27
2018-02-08T19:16:55.972Z,1.26
2018-02-08T19:19:30.817Z,1.23
2018-02-08T19:22:05.692Z,1.15
2018-02-08T19:24:40.558Z,1.12
2018-02-08T19:27:15.389Z,1.60
2018-02-08T19:29:50.124Z,1.85
2018-02-08T19:32:25.458Z,1.95
2018-02-08T19:35:00.398Z,1.94
2018-02-08T19:37:35.142Z,1.95
2018-02-08T19:40:09.968Z,2.00
2018-02-08T19:42:45.427Z,2.08
2018-02-08T19:45:20.112Z,2.17
2018-02-08T19:47:55.078Z,2.23
2018-02-08T19:50:29.559Z,2.10
2018-02-08T19:53:04.206Z,1.92
2018-02-08T19:55:39.314Z,1.72
2018-02-08T19:58:13.988Z,1.56
2018-02-08T20:00:48.983Z,1.40
2018-02-08T20:03:23.722Z,1.23
2018-02-08T20:05:58.841Z,1.17
2018-02-08T20:08:33.595Z,1.08
2018-02-08T20:11:08.419Z,1.01
2018-02-08T20:13:43.386Z,0.96
2018-02-08T20:16:18.074Z,0.83
2018-02-08T20:18:53.242Z,0.75
2018-02-08T20:21:28.203Z,0.67
2018-02-08T20:24:03.186Z,0.63
2018-02-08T20:26:38.010Z,0.57
2018-02-08T20:29:12.729Z,0.56
2018-02-08T20:31:47.324Z,0.56
2018-02-08T20:34:22.101Z,0.54
2018-02-08T20:37:01.738Z,0.51
2018-02-08T20:39:36.868Z,0.45
2018-02-08T20:42:17.094Z,0.41
2018-02-08T20:44:51.495Z,0.36
2018-02-08T20:47:26.513Z,0.31
2018-02-08T20:50:04.902Z,0.25
2018-02-08T20:52:39.275Z,0.19
2018-02-08T20:55:27.242Z,0.13
2018-02-08T20:58:11.122Z,0.10
2018-02-08T21:00:45.978Z,0.03
2018-02-08T21:03:21.309Z,0.01
2018-02-08T21:05:56.915Z,-0.02
2018-02-08T21:08:31.977Z,-0.01
2018-02-08T21:11:07.257Z,-0.04
2018-02-08T21:13:42.211Z,-0.11
2018-02-08T21:16:17.301Z,-0.12
2018-02-08T21:18:52.320Z,-0.16
2018-02-08T21:21:27.462Z,-0.20
2018-02-08T21:24:02.089Z,-0.23
2018-02-08T21:26:37.074Z,-0.24
2018-02-08T21:29:12.378Z,-0.22
2018-02-08T21:31:47.534Z,-0.21
2018-02-08T21:34:22.507Z,-0.20
2018-02-08T21:36:57.850Z,-0.21
2018-02-08T21:39:32.525Z,-0.21
2018-02-08T21:42:07.671Z,-0.23
2018-02-08T21:44:42.814Z,-0.28
2018-02-08T21:47:17.688Z,-0.38
2018-02-08T21:49:52.752Z,-0.39
2018-02-08T21:52:27.742Z,-0.41
2018-02-08T21:55:03.108Z,-0.44
2018-02-08T21:57:38.623Z,-0.51
2018-02-08T22:00:13.550Z,-0.56
2018-02-08T22:02:48.874Z,-0.57
2018-02-08T22:05:23.616Z,-0.58
2018-02-08T22:07:58.613Z,-0.61
2018-02-08T22:10:33.836Z,-0.65
2018-02-08T22:13:09.304Z,-0.67
2018-02-08T22:15:44.435Z,-0.66
2018-02-08T22:18:19.534Z,-0.67
2018-02-08T22:20:54.515Z,-0.72
2018-02-08T22:23:29.376Z,-0.73
2018-02-08T22:26:04.402Z,-0.77
2018-02-08T22:28:39.518Z,-0.79
2018-02-08T22:31:14.881Z,-0.78
2018-02-08T22:33:50.133Z,-0.78
2018-02-08T22:36:25.618Z,-0.86
2018-02-08T22:39:00.174Z,-0.89
2018-02-08T22:41:35.445Z,-0.94
2018-02-08T22:44:10.366Z,-0.96
2018-02-08T22:46:45.501Z,-0.94
2018-02-08T22:49:20.574Z,-0.94
2018-02-08T22:51:56.174Z,-0.96
2018-02-08T22:54:31.217Z,-1.08
2018-02-08T22:57:06.358Z,-1.08
2018-02-08T22:59:41.683Z,-1.10
2018-02-08T23:02:16.383Z,-1.13
2018-02-08T23:04:51.242Z,-1.14
2018-02-08T23:07:26.218Z,-1.14
2018-02-08T23:10:01.247Z,-1.13
2018-02-08T23:12:36.346Z,-1.17
2018-02-08T23:15:11.325Z,-1.18
2018-02-08T23:17:45.695Z,-1.20
2018-02-08T23:20:20.785Z,-1.32
2018-02-08T23:22:55.473Z,-1.35
2018-02-08T23:25:30.554Z,-1.35
2018-02-08T23:28:05.343Z,-1.31
2018-02-08T23:30:40.617Z,-1.30
2018-02-08T23:33:15.790Z,-1.30
2018-02-08T23:35:50.769Z,-1.33
2018-02-08T23:38:25.773Z,-1.31
2018-02-08T23:41:01.341Z,-1.35
2018-02-08T23:43:36.499Z,-1.37
2018-02-08T23:46:11.502Z,-1.37
2018-02-08T23:48:46.506Z,-1.35
2018-02-08T23:51:21.217Z,-1.34
2018-02-08T23:53:56.393Z,-1.35
2018-02-08T23:56:31.673Z,-1.37
2018-02-08T23:59:06.366Z,-1.38
